createdAt,value
2022-08-03T00:00:01.515Z,988.26
2022-08-03T00:00:21.271Z,988.27
2022-08-03T00:00:34.337Z,988.27
2022-08-03T00:00:49.510Z,988.28
2022-08-03T00:01:05.281Z,988.27
2022-08-03T00:01:22.129Z,988.27
2022-08-03T00:01:37.175Z,988.27
2022-08-03T00:01:53.011Z,988.27
2022-08-03T00:02:09.425Z,988.26
2022-08-03T00:02:25.452Z,988.25
2022-08-03T00:02:43.218Z,988.25
2022-08-03T00:02:57.478Z,988.25
2022-08-03T00:03:14.110Z,988.26
2022-08-03T00:03:33.286Z,988.26
2022-08-03T00:03:46.279Z,988.27
2022-08-03T00:04:01.126Z,988.27
2022-08-03T00:04:18.437Z,988.25
2022-08-03T00:04:34.370Z,988.27
2022-08-03T00:04:48.635Z,988.26
2022-08-03T00:05:05.473Z,988.26
2022-08-03T00:05:21.067Z,988.26
2022-08-03T00:05:37.551Z,988.25
2022-08-03T00:06:04.863Z,988.26
2022-08-03T00:06:09.683Z,988.27
2022-08-03T00:06:25.223Z,988.27
2022-08-03T00:06:43.203Z,988.27
2022-08-03T00:06:58.919Z,988.26
2022-08-03T00:07:12.550Z,988.26
2022-08-03T00:07:29.191Z,988.27
2022-08-03T00:07:44.576Z,988.26
2022-08-03T00:08:01.251Z,988.27
2022-08-03T00:08:17.149Z,988.27
2022-08-03T00:08:37.710Z,988.28
2022-08-03T00:08:49.054Z,988.28
2022-08-03T00:09:07.473Z,988.28
2022-08-03T00:09:22.791Z,988.27
2022-08-03T00:09:37.750Z,988.26
2022-08-03T00:09:52.926Z,988.26
2022-08-03T00:10:09.331Z,988.27
2022-08-03T00:10:25.619Z,988.27
2022-08-03T00:10:41.116Z,988.26
2022-08-03T00:10:57.308Z,988.27
2022-08-03T00:11:12.636Z,988.27
2022-08-03T00:11:29.889Z,988.28
2022-08-03T00:11:45.405Z,988.28
2022-08-03T00:12:01.979Z,988.28
2022-08-03T00:12:17.622Z,988.27
2022-08-03T00:12:32.373Z,988.26
2022-08-03T00:12:49.672Z,988.26
2022-08-03T00:13:04.835Z,988.26
2022-08-03T00:13:21.300Z,988.28
2022-08-03T00:13:36.868Z,988.28
2022-08-03T00:13:54.193Z,988.28
2022-08-03T00:14:09.364Z,988.28
2022-08-03T00:14:26.136Z,988.28
2022-08-03T00:14:41.210Z,988.27
2022-08-03T00:14:57.597Z,988.27
2022-08-03T00:15:16.580Z,988.27
2022-08-03T00:15:29.206Z,988.27
2022-08-03T00:15:45.424Z,988.27
2022-08-03T00:16:00.853Z,988.27
2022-08-03T00:16:17.793Z,988.27
2022-08-03T00:16:33.439Z,988.27
2022-08-03T00:16:51.356Z,988.28
2022-08-03T00:17:06.050Z,988.28
2022-08-03T00:17:22.332Z,988.27
2022-08-03T00:17:53.280Z,988.28
2022-08-03T00:17:54.019Z,988.28
2022-08-03T00:18:09.739Z,988.27
2022-08-03T00:18:25.324Z,988.26
2022-08-03T00:18:41.743Z,988.27
2022-08-03T00:18:56.491Z,988.26
2022-08-03T00:19:13.817Z,988.26
2022-08-03T00:19:29.221Z,988.26
2022-08-03T00:19:46.175Z,988.26
2022-08-03T00:20:01.603Z,988.26
2022-08-03T00:20:18.375Z,988.25
2022-08-03T00:20:33.410Z,988.25
2022-08-03T00:20:48.816Z,988.25
2022-08-03T00:21:05.483Z,988.25
2022-08-03T00:21:22.353Z,988.26
2022-08-03T00:21:39.094Z,988.25
2022-08-03T00:21:52.609Z,988.24
2022-08-03T00:22:10.226Z,988.24
2022-08-03T00:22:25.251Z,988.24
2022-08-03T00:22:41.586Z,988.24
2022-08-03T00:22:57.536Z,988.24
2022-08-03T00:23:15.692Z,988.24
2022-08-03T00:23:50.885Z,988.24
2022-08-03T00:23:51.129Z,988.25
2022-08-03T00:24:01.258Z,988.22
2022-08-03T00:24:16.692Z,988.22
2022-08-03T00:24:34.083Z,988.22
2022-08-03T00:24:48.593Z,988.22
2022-08-03T00:25:05.792Z,988.22
2022-08-03T00:25:20.671Z,988.22
2022-08-03T00:25:40.077Z,988.21
2022-08-03T00:25:52.801Z,988.21
2022-08-03T00:26:08.242Z,988.21
2022-08-03T00:26:25.065Z,988.21
2022-08-03T00:26:40.526Z,988.21
2022-08-03T00:26:57.376Z,988.21
2022-08-03T00:27:16.328Z,988.2
2022-08-03T00:27:32.657Z,988.2
2022-08-03T00:27:45.143Z,988.19
2022-08-03T00:28:01.980Z,988.19
2022-08-03T00:28:17.057Z,988.19
2022-08-03T00:28:33.696Z,988.19
2022-08-03T00:28:49.508Z,988.19
2022-08-03T00:29:04.385Z,988.18
2022-08-03T00:29:23.028Z,988.18
2022-08-03T00:29:59.680Z,988.17
2022-08-03T00:30:00.114Z,988.17
2022-08-03T00:30:09.187Z,988.16
2022-08-03T00:30:28.478Z,988.16
2022-08-03T00:30:41.291Z,988.16
2022-08-03T00:30:57.896Z,988.17
2022-08-03T00:31:13.872Z,988.17
2022-08-03T00:31:39.933Z,988.17
2022-08-03T00:31:52.669Z,988.16
2022-08-03T00:32:00.980Z,988.15
2022-08-03T00:32:17.901Z,988.15
2022-08-03T00:32:32.873Z,988.16
2022-08-03T00:32:50.007Z,988.16
2022-08-03T00:33:05.050Z,988.16
2022-08-03T00:33:23.545Z,988.15
2022-08-03T00:33:58.994Z,988.16
2022-08-03T00:33:59.221Z,988.17
2022-08-03T00:34:09.404Z,988.18
2022-08-03T00:34:36.383Z,988.17
2022-08-03T00:34:57.793Z,988.18
2022-08-03T00:34:57.982Z,988.18
2022-08-03T00:35:28.036Z,988.19
2022-08-03T00:35:50.433Z,988.19
2022-08-03T00:35:50.620Z,988.19
2022-08-03T00:36:02.440Z,988.2
2022-08-03T00:36:18.698Z,988.21
2022-08-03T00:36:33.581Z,988.22
2022-08-03T00:36:48.724Z,988.21
2022-08-03T00:37:05.051Z,988.21
2022-08-03T00:37:20.925Z,988.22
2022-08-03T00:37:41.260Z,988.22
2022-08-03T00:37:52.558Z,988.23
2022-08-03T00:38:09.731Z,988.24
2022-08-03T00:38:25.217Z,988.24
2022-08-03T00:38:41.461Z,988.24
2022-08-03T00:38:57.061Z,988.25
2022-08-03T00:39:13.988Z,988.24
2022-08-03T00:39:30.071Z,988.23
2022-08-03T00:39:44.416Z,988.24
2022-08-03T00:40:01.593Z,988.24
2022-08-03T00:40:16.851Z,988.24
2022-08-03T00:40:33.722Z,988.23
2022-08-03T00:40:50.702Z,988.23
2022-08-03T00:41:06.115Z,988.23
2022-08-03T00:41:21.007Z,988.22
2022-08-03T00:41:38.201Z,988.23
2022-08-03T00:41:54.018Z,988.23
2022-08-03T00:42:11.075Z,988.23
2022-08-03T00:42:28.525Z,988.22
2022-08-03T00:42:40.245Z,988.21
2022-08-03T00:42:57.499Z,988.21
2022-08-03T00:43:12.615Z,988.21
2022-08-03T00:43:30.020Z,988.2
2022-08-03T00:43:45.055Z,988.21
2022-08-03T00:44:01.482Z,988.2
2022-08-03T00:44:17.956Z,988.21
2022-08-03T00:44:36.526Z,988.21
2022-08-03T00:44:49.314Z,988.2
2022-08-03T00:45:05.145Z,988.19
2022-08-03T00:45:20.933Z,988.21
2022-08-03T00:45:36.832Z,988.19
2022-08-03T00:45:53.690Z,988.2
2022-08-03T00:46:10.573Z,988.19
2022-08-03T00:46:25.186Z,988.2
2022-08-03T00:46:41.390Z,988.2
2022-08-03T00:46:58.090Z,988.2
2022-08-03T00:47:12.688Z,988.21
2022-08-03T00:47:30.229Z,988.21
2022-08-03T00:47:44.899Z,988.21
2022-08-03T00:48:01.158Z,988.22
2022-08-03T00:48:29.700Z,988.21
2022-08-03T00:48:33.673Z,988.21
2022-08-03T00:48:49.789Z,988.22
2022-08-03T00:49:04.590Z,988.23
2022-08-03T00:49:21.654Z,988.23
2022-08-03T00:49:37.200Z,988.23
2022-08-03T00:49:54.999Z,988.23
2022-08-03T00:50:09.150Z,988.23
2022-08-03T00:50:24.596Z,988.23
2022-08-03T00:50:41.415Z,988.24
2022-08-03T00:50:57.074Z,988.26
2022-08-03T00:51:13.067Z,988.25
2022-08-03T00:51:28.752Z,988.23
2022-08-03T00:51:45.948Z,988.23
2022-08-03T00:52:01.089Z,988.21
2022-08-03T00:52:17.741Z,988.22
2022-08-03T00:52:32.801Z,988.21
2022-08-03T00:52:49.994Z,988.22
2022-08-03T00:53:04.810Z,988.21
2022-08-03T00:53:20.684Z,988.22
2022-08-03T00:53:37.352Z,988.22
2022-08-03T00:53:52.970Z,988.22
2022-08-03T00:54:09.072Z,988.24
2022-08-03T00:54:25.049Z,988.24
2022-08-03T00:54:41.337Z,988.24
2022-08-03T00:54:57.255Z,988.25
2022-08-03T00:55:14.071Z,988.25
2022-08-03T00:55:29.237Z,988.25
2022-08-03T00:55:45.539Z,988.25
2022-08-03T00:56:04.225Z,988.26
2022-08-03T00:56:16.930Z,988.25
2022-08-03T00:56:35.766Z,988.26
2022-08-03T00:56:59.510Z,988.26
2022-08-03T00:57:05.608Z,988.26
2022-08-03T00:57:21.003Z,988.25
2022-08-03T00:57:37.633Z,988.26
2022-08-03T00:57:53.584Z,988.25
2022-08-03T00:58:09.983Z,988.26
2022-08-03T00:58:25.544Z,988.27
2022-08-03T00:58:40.250Z,988.27
2022-08-03T00:58:56.811Z,988.27
2022-08-03T00:59:12.345Z,988.28
2022-08-03T00:59:29.591Z,988.28
2022-08-03T00:59:44.431Z,988.28
2022-08-03T01:00:01.858Z,988.28
2022-08-03T01:00:16.729Z,988.27
2022-08-03T01:00:33.851Z,988.26
2022-08-03T01:00:48.969Z,988.28
2022-08-03T01:01:05.891Z,988.28
2022-08-03T01:01:20.888Z,988.29
2022-08-03T01:01:36.504Z,988.3
2022-08-03T01:01:53.523Z,988.28
2022-08-03T01:02:09.140Z,988.28
2022-08-03T01:02:26.959Z,988.29
2022-08-03T01:02:42.203Z,988.29
2022-08-03T01:02:57.798Z,988.29
2022-08-03T01:03:13.414Z,988.29
2022-08-03T01:03:29.565Z,988.29
2022-08-03T01:03:45.261Z,988.29
2022-08-03T01:04:00.636Z,988.28
2022-08-03T01:04:17.519Z,988.28
2022-08-03T01:04:32.794Z,988.28
2022-08-03T01:04:49.382Z,988.29
2022-08-03T01:05:04.725Z,988.29
2022-08-03T01:05:21.770Z,988.28
2022-08-03T01:05:36.496Z,988.27
2022-08-03T01:05:53.415Z,988.28
2022-08-03T01:06:10.712Z,988.29
2022-08-03T01:06:26.541Z,988.29
2022-08-03T01:06:41.176Z,988.29
2022-08-03T01:06:56.316Z,988.29
2022-08-03T01:07:13.166Z,988.28
2022-08-03T01:07:28.271Z,988.27
2022-08-03T01:07:44.945Z,988.29
2022-08-03T01:08:00.613Z,988.29
2022-08-03T01:08:17.159Z,988.3
2022-08-03T01:08:32.606Z,988.31
2022-08-03T01:08:49.735Z,988.31
2022-08-03T01:09:05.378Z,988.32
2022-08-03T01:09:20.052Z,988.31
2022-08-03T01:09:38.740Z,988.31
2022-08-03T01:09:53.926Z,988.31
2022-08-03T01:10:08.981Z,988.32
2022-08-03T01:10:25.863Z,988.33
2022-08-03T01:10:40.993Z,988.33
2022-08-03T01:10:58.399Z,988.32
2022-08-03T01:11:13.999Z,988.33
2022-08-03T01:11:29.063Z,988.34
2022-08-03T01:12:01.219Z,988.34
2022-08-03T01:12:02.531Z,988.34
2022-08-03T01:12:18.288Z,988.33
2022-08-03T01:12:34.722Z,988.33
2022-08-03T01:12:48.579Z,988.34
2022-08-03T01:13:05.148Z,988.34
2022-08-03T01:14:01.582Z,988.34
2022-08-03T01:14:04.011Z,988.33
2022-08-03T01:14:04.175Z,988.33
2022-08-03T01:14:18.934Z,988.35
2022-08-03T01:14:26.349Z,988.36
2022-08-03T01:14:43.176Z,988.36
2022-08-03T01:14:56.988Z,988.37
2022-08-03T01:15:12.346Z,988.36
2022-08-03T01:15:28.854Z,988.36
2022-08-03T01:15:44.535Z,988.36
2022-08-03T01:16:01.216Z,988.36
2022-08-03T01:16:16.457Z,988.35
2022-08-03T01:16:36.948Z,988.37
2022-08-03T01:16:48.489Z,988.38
2022-08-03T01:17:05.521Z,988.37
2022-08-03T01:17:21.056Z,988.37
2022-08-03T01:17:36.804Z,988.36
2022-08-03T01:17:52.748Z,988.36
2022-08-03T01:18:09.760Z,988.36
2022-08-03T01:18:25.131Z,988.35
2022-08-03T01:18:40.764Z,988.36
2022-08-03T01:18:57.211Z,988.35
2022-08-03T01:19:12.471Z,988.34
2022-08-03T01:19:29.090Z,988.35
2022-08-03T01:19:45.082Z,988.34
2022-08-03T01:20:01.739Z,988.34
2022-08-03T01:20:17.276Z,988.34
2022-08-03T01:20:32.805Z,988.35
2022-08-03T01:20:48.947Z,988.34
2022-08-03T01:21:05.863Z,988.34
2022-08-03T01:21:21.815Z,988.34
2022-08-03T01:21:36.637Z,988.34
2022-08-03T01:21:54.486Z,988.34
2022-08-03T01:22:08.752Z,988.34
2022-08-03T01:22:25.703Z,988.34
2022-08-03T01:22:41.058Z,988.34
2022-08-03T01:22:56.418Z,988.33
2022-08-03T01:23:14.376Z,988.32
2022-08-03T01:23:28.880Z,988.31
2022-08-03T01:23:45.315Z,988.3
2022-08-03T01:24:00.414Z,988.31
2022-08-03T01:24:17.330Z,988.29
2022-08-03T01:24:48.780Z,988.31
2022-08-03T01:24:49.754Z,988.31
2022-08-03T01:25:04.534Z,988.3
2022-08-03T01:25:22.011Z,988.3
2022-08-03T01:25:37.470Z,988.3
2022-08-03T01:25:54.563Z,988.29
2022-08-03T01:26:09.354Z,988.28
2022-08-03T01:26:24.723Z,988.29
2022-08-03T01:26:40.925Z,988.29
2022-08-03T01:26:57.144Z,988.29
2022-08-03T01:27:14.392Z,988.29
2022-08-03T01:27:28.442Z,988.28
2022-08-03T01:27:45.137Z,988.27
2022-08-03T01:28:00.942Z,988.3
2022-08-03T01:28:16.840Z,988.28
2022-08-03T01:28:33.589Z,988.29
2022-08-03T01:28:48.985Z,988.29
2022-08-03T01:29:06.459Z,988.28
2022-08-03T01:29:22.475Z,988.28
2022-08-03T01:29:38.585Z,988.28
2022-08-03T01:29:52.845Z,988.28
2022-08-03T01:30:09.891Z,988.27
2022-08-03T01:30:25.031Z,988.26
2022-08-03T01:30:41.713Z,988.25
2022-08-03T01:30:57.283Z,988.26
2022-08-03T01:31:12.057Z,988.26
2022-08-03T01:31:30.297Z,988.27
2022-08-03T01:32:59.512Z,988.25
2022-08-03T01:32:59.657Z,988.27
2022-08-03T01:32:59.944Z,988.25
2022-08-03T01:33:02.395Z,988.26
2022-08-03T01:33:05.922Z,988.23
2022-08-03T01:33:21.445Z,988.23
2022-08-03T01:33:37.870Z,988.25
2022-08-03T01:33:53.482Z,988.26
2022-08-03T01:34:09.294Z,988.25
2022-08-03T01:34:24.924Z,988.24
2022-08-03T01:34:40.857Z,988.23
2022-08-03T01:34:57.313Z,988.22
2022-08-03T01:35:14.017Z,988.22
2022-08-03T01:35:29.915Z,988.21
2022-08-03T01:35:44.502Z,988.23
2022-08-03T01:36:01.531Z,988.22
2022-08-03T01:36:17.411Z,988.23
2022-08-03T01:36:32.702Z,988.22
2022-08-03T01:36:49.574Z,988.23
2022-08-03T01:37:04.866Z,988.22
2022-08-03T01:37:21.334Z,988.22
2022-08-03T01:37:36.511Z,988.2
2022-08-03T01:37:53.155Z,988.2
2022-08-03T01:38:08.315Z,988.19
2022-08-03T01:38:25.330Z,988.2
2022-08-03T01:38:40.879Z,988.2
2022-08-03T01:38:57.938Z,988.19
2022-08-03T01:39:13.439Z,988.18
2022-08-03T01:39:30.929Z,988.17
2022-08-03T01:39:45.279Z,988.17
2022-08-03T01:40:00.733Z,988.17
2022-08-03T01:40:16.822Z,988.17
2022-08-03T01:40:32.413Z,988.16
2022-08-03T01:40:48.985Z,988.15
2022-08-03T01:41:04.747Z,988.14
2022-08-03T01:41:21.654Z,988.14
2022-08-03T01:41:37.334Z,988.13
2022-08-03T01:41:51.955Z,988.13
2022-08-03T01:42:09.253Z,988.12
2022-08-03T01:42:24.625Z,988.13
2022-08-03T01:42:41.659Z,988.11
2022-08-03T01:42:57.009Z,988.12
2022-08-03T01:43:13.629Z,988.11
2022-08-03T01:44:26.702Z,988.11
2022-08-03T01:44:27.891Z,988.1
2022-08-03T01:44:27.984Z,988.1
2022-08-03T01:44:29.918Z,988.1
2022-08-03T01:44:33.175Z,988.09
2022-08-03T01:44:48.241Z,988.09
2022-08-03T01:45:04.857Z,988.1
2022-08-03T01:45:20.196Z,988.11
2022-08-03T01:45:36.861Z,988.11
2022-08-03T01:45:52.754Z,988.12
2022-08-03T01:46:09.202Z,988.12
2022-08-03T01:46:25.231Z,988.12
2022-08-03T01:46:48.272Z,988.13
2022-08-03T01:46:57.120Z,988.13
2022-08-03T01:47:12.667Z,988.12
2022-08-03T01:47:28.777Z,988.11
2022-08-03T01:47:44.090Z,988.12
2022-08-03T01:48:00.796Z,988.12
2022-08-03T01:48:16.265Z,988.14
2022-08-03T01:48:33.170Z,988.13
2022-08-03T01:48:48.604Z,988.13
2022-08-03T01:49:09.360Z,988.13
2022-08-03T01:49:21.011Z,988.13
2022-08-03T01:49:37.515Z,988.13
2022-08-03T01:49:54.217Z,988.14
2022-08-03T01:50:08.421Z,988.14
2022-08-03T01:50:24.874Z,988.12
2022-08-03T01:50:40.844Z,988.13
2022-08-03T01:50:58.518Z,988.13
2022-08-03T01:51:12.763Z,988.13
2022-08-03T01:52:00.356Z,988.13
2022-08-03T01:52:03.115Z,988.12
2022-08-03T01:52:04.237Z,988.12
2022-08-03T01:52:19.509Z,988.12
2022-08-03T01:52:33.785Z,988.11
2022-08-03T01:52:49.432Z,988.1
2022-08-03T01:53:04.164Z,988.1
2022-08-03T01:53:21.513Z,988.1
2022-08-03T01:53:36.175Z,988.11
2022-08-03T01:53:54.654Z,988.09
2022-08-03T01:54:08.581Z,988.09
2022-08-03T01:54:24.889Z,988.08
2022-08-03T01:54:41.060Z,988.08
2022-08-03T01:54:59.165Z,988.06
2022-08-03T01:55:13.056Z,988.05
2022-08-03T01:55:28.273Z,988.06
2022-08-03T01:55:45.439Z,988.06
2022-08-03T01:56:00.029Z,988.06
2022-08-03T01:56:16.677Z,988.05
2022-08-03T01:56:32.717Z,988.05
2022-08-03T01:56:49.323Z,988.05
2022-08-03T01:57:05.093Z,988.05
2022-08-03T01:57:21.674Z,988.05
2022-08-03T01:58:05.892Z,988.05
2022-08-03T01:58:06.235Z,988.05
2022-08-03T01:58:09.063Z,988.05
2022-08-03T01:58:24.459Z,988.04
2022-08-03T01:58:40.716Z,988.03
2022-08-03T01:58:56.416Z,988.03
2022-08-03T01:59:13.299Z,988.03
2022-08-03T01:59:28.897Z,988.04
2022-08-03T01:59:45.289Z,988.05
2022-08-03T02:00:02.414Z,988.04
2022-08-03T02:00:17.518Z,988.04
2022-08-03T02:00:32.985Z,988.04
2022-08-03T02:00:47.961Z,988.03
2022-08-03T02:01:05.465Z,988.02
2022-08-03T02:01:20.838Z,988.02
2022-08-03T02:02:28.779Z,988.03
2022-08-03T02:02:29.117Z,988.03
2022-08-03T02:02:32.252Z,988.03
2022-08-03T02:02:32.700Z,988.05
2022-08-03T02:02:41.302Z,988.04
2022-08-03T02:02:56.391Z,988.04
2022-08-03T02:03:13.754Z,988.04
2022-08-03T02:03:28.845Z,988.04
2022-08-03T02:04:00.864Z,988.04
2022-08-03T02:04:01.359Z,988.04
2022-08-03T02:04:16.429Z,988.04
2022-08-03T02:04:33.016Z,988.04
2022-08-03T02:04:48.493Z,988.05
2022-08-03T02:05:10.587Z,988.06
2022-08-03T02:05:20.575Z,988.05
2022-08-03T02:05:37.673Z,988.05
2022-08-03T02:06:06.119Z,988.05
2022-08-03T02:06:59.866Z,988.05
2022-08-03T02:07:00.305Z,988.04
2022-08-03T02:07:01.305Z,988.05
2022-08-03T02:07:02.648Z,988.05
2022-08-03T02:07:14.184Z,988.05
2022-08-03T02:07:29.350Z,988.06
2022-08-03T02:07:44.250Z,988.05
2022-08-03T02:08:01.855Z,988.04
2022-08-03T02:08:16.934Z,988.03
2022-08-03T02:08:36.461Z,988.03
2022-08-03T02:08:49.267Z,988.05
2022-08-03T02:09:03.977Z,988.05
2022-08-03T02:09:20.925Z,988.05
2022-08-03T02:09:35.963Z,988.04
2022-08-03T02:09:53.212Z,988.04
2022-08-03T02:10:08.876Z,988.04
2022-08-03T02:10:34.504Z,988.05
2022-08-03T02:10:40.450Z,988.04
2022-08-03T02:10:57.793Z,988.05
2022-08-03T02:11:13.112Z,988.06
2022-08-03T02:11:29.362Z,988.05
2022-08-03T02:11:44.880Z,988.05
2022-08-03T02:12:00.431Z,988.06
2022-08-03T02:12:17.079Z,988.07
2022-08-03T02:12:32.675Z,988.07
2022-08-03T02:12:51.246Z,988.07
2022-08-03T02:13:05.041Z,988.08
2022-08-03T02:13:21.372Z,988.09
2022-08-03T02:13:36.737Z,988.08
2022-08-03T02:13:53.801Z,988.08
2022-08-03T02:14:08.807Z,988.07
2022-08-03T02:14:24.092Z,988.06
2022-08-03T02:14:41.124Z,988.06
2022-08-03T02:14:56.912Z,988.06
2022-08-03T02:15:14.274Z,988.05
2022-08-03T02:15:28.149Z,988.05
2022-08-03T02:15:44.819Z,988.06
2022-08-03T02:16:02.042Z,988.07
2022-08-03T02:16:18.704Z,988.06
2022-08-03T02:16:33.236Z,988.04
2022-08-03T02:16:49.700Z,988.06
2022-08-03T02:17:05.074Z,988.05
2022-08-03T02:17:39.160Z,988.05
2022-08-03T02:17:39.502Z,988.05
2022-08-03T02:17:52.335Z,988.06
2022-08-03T02:18:09.629Z,988.06
2022-08-03T02:18:24.185Z,988.06
2022-08-03T02:18:40.859Z,988.06
2022-08-03T02:18:56.800Z,988.04
2022-08-03T02:19:12.937Z,988.04
2022-08-03T02:19:32.566Z,988.04
2022-08-03T02:19:44.694Z,988.04
2022-08-03T02:20:00.876Z,988.04
2022-08-03T02:20:16.670Z,988.04
2022-08-03T02:20:33.340Z,988.02
2022-08-03T02:20:48.320Z,988.03
2022-08-03T02:21:10.979Z,988.02
2022-08-03T02:21:55.735Z,988.03
2022-08-03T02:21:56.426Z,988.01
2022-08-03T02:21:57.272Z,988.02
2022-08-03T02:22:09.724Z,988.02
2022-08-03T02:22:24.789Z,988.01
2022-08-03T02:22:39.864Z,988.01
2022-08-03T02:22:57.205Z,988.01
2022-08-03T02:23:12.375Z,988.01
2022-08-03T02:23:28.675Z,988.02
2022-08-03T02:23:44.797Z,988.02
2022-08-03T02:24:00.761Z,988.02
2022-08-03T02:24:16.638Z,988.02
2022-08-03T02:24:33.369Z,988
2022-08-03T02:24:49.303Z,988.01
2022-08-03T02:25:05.761Z,988
2022-08-03T02:25:21.029Z,988.01
2022-08-03T02:25:36.089Z,988.01
2022-08-03T02:25:53.056Z,988.01
2022-08-03T02:26:08.070Z,988.01
2022-08-03T02:26:24.861Z,988.01
2022-08-03T02:26:40.560Z,988.01
2022-08-03T02:26:57.663Z,988.02
2022-08-03T02:27:13.052Z,988
2022-08-03T02:27:29.850Z,988.01
2022-08-03T02:27:44.578Z,988.01
2022-08-03T02:28:00.112Z,988.01
2022-08-03T02:28:17.286Z,988.01
2022-08-03T02:28:32.702Z,988
2022-08-03T02:28:50.732Z,988
2022-08-03T02:29:04.704Z,987.99
2022-08-03T02:29:39.195Z,988
2022-08-03T02:29:39.928Z,988
2022-08-03T02:29:53.424Z,988
2022-08-03T02:30:08.729Z,987.99
2022-08-03T02:30:24.956Z,988
2022-08-03T02:30:42.469Z,988
2022-08-03T02:30:57.958Z,988
2022-08-03T02:31:13.389Z,988
2022-08-03T02:31:28.406Z,988.01
2022-08-03T02:31:45.443Z,988.01
2022-08-03T02:32:00.928Z,988.01
2022-08-03T02:32:17.018Z,988
2022-08-03T02:32:33.032Z,988.02
2022-08-03T02:32:49.572Z,988.01
2022-08-03T02:33:04.512Z,988.01
2022-08-03T02:33:21.029Z,988.01
2022-08-03T02:33:37.068Z,988.01
2022-08-03T02:33:52.134Z,988
2022-08-03T02:34:09.380Z,988.01
2022-08-03T02:34:24.951Z,988.01
2022-08-03T02:34:40.653Z,988
2022-08-03T02:34:56.674Z,988
2022-08-03T02:35:12.798Z,987.99
2022-08-03T02:35:28.829Z,988
2022-08-03T02:35:46.260Z,988
2022-08-03T02:36:01.192Z,988
2022-08-03T02:36:16.330Z,988
2022-08-03T02:36:32.871Z,988.02
2022-08-03T02:36:48.182Z,988.01
2022-08-03T02:37:05.161Z,988.01
2022-08-03T02:37:20.856Z,988
2022-08-03T02:37:36.965Z,988
2022-08-03T02:37:52.414Z,988
2022-08-03T02:38:09.740Z,987.99
2022-08-03T02:38:27.546Z,988.01
2022-08-03T02:38:39.819Z,988.02
2022-08-03T02:38:56.745Z,988.02
2022-08-03T02:39:13.065Z,988.02
2022-08-03T02:39:29.331Z,988.02
2022-08-03T02:39:44.489Z,988.01
2022-08-03T02:40:01.163Z,988.02
2022-08-03T02:40:16.832Z,988.02
2022-08-03T02:40:33.575Z,988.03
2022-08-03T02:40:49.474Z,988.03
2022-08-03T02:41:05.541Z,988.04
2022-08-03T02:41:22.014Z,988.04
2022-08-03T02:41:36.228Z,988.03
2022-08-03T02:41:54.069Z,988.03
2022-08-03T02:42:08.681Z,988.02
2022-08-03T02:42:26.070Z,988.02
2022-08-03T02:42:40.427Z,988.03
2022-08-03T02:42:57.455Z,988.03
2022-08-03T02:43:12.144Z,988.05
2022-08-03T02:43:29.052Z,988.05
2022-08-03T02:44:05.561Z,988.05
2022-08-03T02:44:06.903Z,988.05
2022-08-03T02:44:16.566Z,988.05
2022-08-03T02:44:31.985Z,988.04
2022-08-03T02:44:49.307Z,988.05
2022-08-03T02:45:04.049Z,988.04
2022-08-03T02:45:21.360Z,988.04
2022-08-03T02:45:36.551Z,988.04
2022-08-03T02:45:52.970Z,988.03
2022-08-03T02:46:08.517Z,988.03
2022-08-03T02:46:25.498Z,988.03
2022-08-03T02:46:40.261Z,988.04
2022-08-03T02:46:56.562Z,988.03
2022-08-03T02:47:13.043Z,988.04
2022-08-03T02:47:53.225Z,988.04
2022-08-03T02:47:53.295Z,988.05
2022-08-03T02:48:01.918Z,988.04
2022-08-03T02:48:16.760Z,988.04
2022-08-03T02:48:32.488Z,988.03
2022-08-03T02:48:49.118Z,988.03
2022-08-03T02:49:40.463Z,988.02
2022-08-03T02:49:42.153Z,988.03
2022-08-03T02:49:50.536Z,988.03
2022-08-03T02:49:52.794Z,988.03
2022-08-03T02:50:09.296Z,988.04
2022-08-03T02:50:25.778Z,988.05
2022-08-03T02:50:40.810Z,988.05
2022-08-03T02:50:56.803Z,988.05
2022-08-03T02:51:13.454Z,988.05
2022-08-03T02:51:28.109Z,988.05
2022-08-03T02:51:46.535Z,988.04
2022-08-03T02:52:00.985Z,988.04
2022-08-03T02:52:16.968Z,988.06
2022-08-03T02:52:33.217Z,988.06
2022-08-03T02:52:47.890Z,988.04
2022-08-03T02:53:04.736Z,988.04
2022-08-03T02:53:20.740Z,988.05
2022-08-03T02:53:36.810Z,988.04
2022-08-03T02:53:52.099Z,988.04
2022-08-03T02:54:09.372Z,988.03
2022-08-03T02:54:24.974Z,988.04
2022-08-03T02:54:44.246Z,988.04
2022-08-03T02:54:57.149Z,988.04
2022-08-03T02:55:11.958Z,988.04
2022-08-03T02:55:28.845Z,988.05
2022-08-03T02:55:46.032Z,988.04
2022-08-03T02:56:01.147Z,988.03
2022-08-03T02:56:16.566Z,988.03
2022-08-03T02:56:33.013Z,988.02
2022-08-03T02:56:48.953Z,988.02
2022-08-03T02:57:05.472Z,988.02
2022-08-03T02:57:20.886Z,988.02
2022-08-03T02:57:35.775Z,988.02
2022-08-03T02:57:52.951Z,988.01
2022-08-03T02:58:08.524Z,988.01
2022-08-03T02:58:24.831Z,988.02
2022-08-03T02:58:40.179Z,988.02
2022-08-03T02:58:56.861Z,988
2022-08-03T02:59:12.069Z,988.01
2022-08-03T02:59:28.634Z,988.01
2022-08-03T02:59:44.706Z,988
2022-08-03T03:00:01.396Z,988.01
2022-08-03T03:00:27.077Z,988.02
2022-08-03T03:00:32.052Z,988.01
2022-08-03T03:00:48.790Z,988.02
2022-08-03T03:01:04.236Z,988.01
2022-08-03T03:01:21.090Z,988.02
2022-08-03T03:01:35.969Z,988
2022-08-03T03:01:53.248Z,988.01
2022-08-03T03:02:08.423Z,988.01
2022-08-03T03:02:25.241Z,988
2022-08-03T03:02:40.114Z,988.01
2022-08-03T03:02:57.623Z,988.02
2022-08-03T03:03:12.624Z,988.01
2022-08-03T03:03:27.665Z,988.03
2022-08-03T03:03:45.219Z,988.03
2022-08-03T03:03:59.934Z,988.02
2022-08-03T03:04:16.925Z,988.02
2022-08-03T03:04:33.205Z,988.01
2022-08-03T03:05:51.131Z,988.02
2022-08-03T03:05:53.267Z,988.02
2022-08-03T03:05:56.336Z,988.02
2022-08-03T03:05:56.407Z,988.03
2022-08-03T03:05:57.499Z,988.02
2022-08-03T03:06:08.504Z,988.03
2022-08-03T03:06:24.659Z,988.02
2022-08-03T03:06:40.543Z,988.03
2022-08-03T03:06:56.541Z,988.02
2022-08-03T03:07:13.485Z,988.01
2022-08-03T03:07:28.783Z,988.03
2022-08-03T03:07:51.446Z,988.04
2022-08-03T03:08:01.067Z,988.05
2022-08-03T03:08:20.560Z,988.04
2022-08-03T03:08:32.509Z,988.04
2022-08-03T03:08:48.004Z,988.05
2022-08-03T03:09:05.133Z,988.06
2022-08-03T03:09:19.744Z,988.06
2022-08-03T03:09:40.238Z,988.05
2022-08-03T03:09:52.063Z,988.06
2022-08-03T03:10:09.046Z,988.06
2022-08-03T03:10:25.293Z,988.06
2022-08-03T03:10:41.117Z,988.05
2022-08-03T03:10:56.518Z,988.06
2022-08-03T03:11:12.154Z,988.06
2022-08-03T03:11:29.259Z,988.06
2022-08-03T03:11:43.765Z,988.06
2022-08-03T03:12:00.729Z,988.07
2022-08-03T03:12:16.178Z,988.07
2022-08-03T03:12:33.763Z,988.07
2022-08-03T03:12:49.880Z,988.07
2022-08-03T03:13:04.958Z,988.07
2022-08-03T03:13:20.700Z,988.08
2022-08-03T03:13:37.297Z,988.08
2022-08-03T03:13:54.438Z,988.07
2022-08-03T03:14:08.783Z,988.06
2022-08-03T03:14:33.489Z,988.08
2022-08-03T03:14:39.728Z,988.08
2022-08-03T03:14:56.560Z,988.08
2022-08-03T03:15:11.912Z,988.08
2022-08-03T03:15:28.775Z,988.08
2022-08-03T03:15:45.222Z,988.09
2022-08-03T03:16:01.433Z,988.08
2022-08-03T03:16:17.083Z,988.08
2022-08-03T03:16:33.500Z,988.07
2022-08-03T03:16:50.615Z,988.08
2022-08-03T03:17:04.352Z,988.08
2022-08-03T03:17:20.685Z,988.09
2022-08-03T03:17:36.726Z,988.09
2022-08-03T03:17:53.196Z,988.09
2022-08-03T03:18:08.184Z,988.09
2022-08-03T03:18:24.599Z,988.09
2022-08-03T03:18:41.998Z,988.1
2022-08-03T03:18:58.672Z,988.1
2022-08-03T03:19:12.391Z,988.1
2022-08-03T03:19:28.368Z,988.1
2022-08-03T03:19:45.172Z,988.1
2022-08-03T03:20:00.579Z,988.12
2022-08-03T03:20:16.555Z,988.11
2022-08-03T03:20:33.625Z,988.11
2022-08-03T03:20:51.487Z,988.1